sensor_id;sensor_type;location;lat;lon;timestamp;P1;durP1;ratioP1;P2;durP2;ratioP2
71148;SDS011;59072;42.144;25.200;2024-02-26T00:00:25;10.57;;;5.80;;
71148;SDS011;59072;42.144;25.200;2024-02-26T00:02:51;12.02;;;6.20;;
71148;SDS011;59072;42.144;25.200;2024-02-26T00:05:16;12.05;;;6.03;;
71148;SDS011;59072;42.144;25.200;2024-02-26T00:07:42;12.65;;;7.40;;
71148;SDS011;59072;42.144;25.200;2024-02-26T00:10:07;13.40;;;6.97;;
71148;SDS011;59072;42.144;25.200;2024-02-26T00:12:33;11.48;;;6.60;;
71148;SDS011;59072;42.144;25.200;2024-02-26T00:14:59;12.80;;;6.80;;
71148;SDS011;59072;42.144;25.200;2024-02-26T00:17:24;13.00;;;6.40;;
71148;SDS011;59072;42.144;25.200;2024-02-26T00:19:50;14.45;;;7.15;;
71148;SDS011;59072;42.144;25.200;2024-02-26T00:22:15;12.85;;;7.28;;
71148;SDS011;59072;42.144;25.200;2024-02-26T00:24:41;15.52;;;7.55;;
71148;SDS011;59072;42.144;25.200;2024-02-26T00:27:06;14.10;;;7.80;;
71148;SDS011;59072;42.144;25.200;2024-02-26T00:29:32;11.77;;;7.18;;
71148;SDS011;59072;42.144;25.200;2024-02-26T00:31:57;12.55;;;7.47;;
71148;SDS011;59072;42.144;25.200;2024-02-26T00:34:23;13.85;;;7.40;;
71148;SDS011;59072;42.144;25.200;2024-02-26T00:36:49;12.82;;;7.22;;
71148;SDS011;59072;42.144;25.200;2024-02-26T00:39:14;13.52;;;7.68;;
71148;SDS011;59072;42.144;25.200;2024-02-26T00:41:40;12.90;;;7.85;;
71148;SDS011;59072;42.144;25.200;2024-02-26T00:44:06;13.75;;;8.15;;
71148;SDS011;59072;42.144;25.200;2024-02-26T00:46:31;13.82;;;7.88;;
71148;SDS011;59072;42.144;25.200;2024-02-26T00:48:57;13.40;;;7.82;;
71148;SDS011;59072;42.144;25.200;2024-02-26T00:51:22;12.57;;;8.30;;
71148;SDS011;59072;42.144;25.200;2024-02-26T00:53:48;12.95;;;8.77;;
71148;SDS011;59072;42.144;25.200;2024-02-26T00:56:13;13.13;;;7.90;;
71148;SDS011;59072;42.144;25.200;2024-02-26T00:58:39;13.77;;;8.30;;
71148;SDS011;59072;42.144;25.200;2024-02-26T01:01:04;13.98;;;9.00;;
71148;SDS011;59072;42.144;25.200;2024-02-26T01:03:30;14.02;;;8.98;;
71148;SDS011;59072;42.144;25.200;2024-02-26T01:05:55;14.25;;;8.48;;
71148;SDS011;59072;42.144;25.200;2024-02-26T01:08:20;11.95;;;7.85;;
71148;SDS011;59072;42.144;25.200;2024-02-26T01:10:46;13.25;;;8.68;;
71148;SDS011;59072;42.144;25.200;2024-02-26T01:13:11;13.63;;;8.30;;
71148;SDS011;59072;42.144;25.200;2024-02-26T01:15:37;14.35;;;7.95;;
71148;SDS011;59072;42.144;25.200;2024-02-26T01:18:02;15.40;;;8.98;;
71148;SDS011;59072;42.144;25.200;2024-02-26T01:20:27;12.70;;;7.70;;
71148;SDS011;59072;42.144;25.200;2024-02-26T01:22:53;14.38;;;8.50;;
71148;SDS011;59072;42.144;25.200;2024-02-26T01:25:18;14.23;;;8.45;;
71148;SDS011;59072;42.144;25.200;2024-02-26T01:27:44;13.05;;;8.35;;
71148;SDS011;59072;42.144;25.200;2024-02-26T01:30:11;16.33;;;9.23;;
71148;SDS011;59072;42.144;25.200;2024-02-26T01:32:36;16.63;;;9.50;;
71148;SDS011;59072;42.144;25.200;2024-02-26T01:35:02;14.30;;;8.45;;
71148;SDS011;59072;42.144;25.200;2024-02-26T01:37:35;14.10;;;8.43;;
71148;SDS011;59072;42.144;25.200;2024-02-26T01:40:00;14.57;;;8.55;;
71148;SDS011;59072;42.144;25.200;2024-02-26T01:42:29;15.13;;;7.53;;
71148;SDS011;59072;42.144;25.200;2024-02-26T01:44:57;12.40;;;8.02;;
71148;SDS011;59072;42.144;25.200;2024-02-26T01:47:23;13.40;;;9.05;;
71148;SDS011;59072;42.144;25.200;2024-02-26T01:49:49;12.45;;;7.97;;
71148;SDS011;59072;42.144;25.200;2024-02-26T01:52:14;13.35;;;8.45;;
71148;SDS011;59072;42.144;25.200;2024-02-26T01:54:40;10.73;;;7.45;;
71148;SDS011;59072;42.144;25.200;2024-02-26T01:57:07;11.43;;;7.65;;
71148;SDS011;59072;42.144;25.200;2024-02-26T01:59:33;12.43;;;7.78;;
71148;SDS011;59072;42.144;25.200;2024-02-26T02:02:00;12.93;;;7.68;;
71148;SDS011;59072;42.144;25.200;2024-02-26T02:04:27;11.50;;;7.53;;
71148;SDS011;59072;42.144;25.200;2024-02-26T02:06:53;12.07;;;6.88;;
71148;SDS011;59072;42.144;25.200;2024-02-26T02:09:19;11.82;;;7.65;;
71148;SDS011;59072;42.144;25.200;2024-02-26T02:11:45;13.73;;;8.45;;
71148;SDS011;59072;42.144;25.200;2024-02-26T02:14:11;13.82;;;7.53;;
71148;SDS011;59072;42.144;25.200;2024-02-26T02:16:37;12.68;;;7.88;;
71148;SDS011;59072;42.144;25.200;2024-02-26T02:19:02;13.43;;;8.27;;
71148;SDS011;59072;42.144;25.200;2024-02-26T02:21:28;13.23;;;7.57;;
71148;SDS011;59072;42.144;25.200;2024-02-26T02:23:53;12.90;;;7.85;;
71148;SDS011;59072;42.144;25.200;2024-02-26T02:26:18;12.57;;;8.07;;
71148;SDS011;59072;42.144;25.200;2024-02-26T02:28:45;14.82;;;9.60;;
71148;SDS011;59072;42.144;25.200;2024-02-26T02:31:12;13.52;;;8.23;;
71148;SDS011;59072;42.144;25.200;2024-02-26T02:33:37;15.20;;;8.85;;
71148;SDS011;59072;42.144;25.200;2024-02-26T02:36:03;15.05;;;8.38;;
71148;SDS011;59072;42.144;25.200;2024-02-26T02:38:29;14.00;;;8.63;;
71148;SDS011;59072;42.144;25.200;2024-02-26T02:40:55;14.82;;;8.57;;
71148;SDS011;59072;42.144;25.200;2024-02-26T02:43:21;18.88;;;9.90;;
71148;SDS011;59072;42.144;25.200;2024-02-26T02:45:46;17.73;;;10.40;;
71148;SDS011;59072;42.144;25.200;2024-02-26T02:48:12;15.57;;;10.27;;
71148;SDS011;59072;42.144;25.200;2024-02-26T02:50:37;18.90;;;10.23;;
71148;SDS011;59072;42.144;25.200;2024-02-26T02:53:03;14.40;;;9.27;;
71148;SDS011;59072;42.144;25.200;2024-02-26T02:55:29;13.27;;;8.85;;
71148;SDS011;59072;42.144;25.200;2024-02-26T02:57:54;15.52;;;9.18;;
71148;SDS011;59072;42.144;25.200;2024-02-26T03:00:19;14.73;;;9.18;;
71148;SDS011;59072;42.144;25.200;2024-02-26T03:02:47;14.55;;;9.55;;
71148;SDS011;59072;42.144;25.200;2024-02-26T03:05:13;17.50;;;10.85;;
71148;SDS011;59072;42.144;25.200;2024-02-26T03:07:38;16.45;;;11.60;;
71148;SDS011;59072;42.144;25.200;2024-02-26T03:10:03;20.90;;;11.48;;
71148;SDS011;59072;42.144;25.200;2024-02-26T03:12:29;19.05;;;11.35;;
71148;SDS011;59072;42.144;25.200;2024-02-26T03:14:55;18.58;;;11.70;;
71148;SDS011;59072;42.144;25.200;2024-02-26T03:17:20;17.38;;;11.73;;
71148;SDS011;59072;42.144;25.200;2024-02-26T03:19:46;19.08;;;12.35;;
71148;SDS011;59072;42.144;25.200;2024-02-26T03:22:12;19.13;;;11.13;;
71148;SDS011;59072;42.144;25.200;2024-02-26T03:24:38;15.07;;;10.43;;
71148;SDS011;59072;42.144;25.200;2024-02-26T03:27:04;17.05;;;10.70;;
71148;SDS011;59072;42.144;25.200;2024-02-26T03:29:34;14.55;;;9.43;;
71148;SDS011;59072;42.144;25.200;2024-02-26T03:32:00;16.42;;;10.32;;
71148;SDS011;59072;42.144;25.200;2024-02-26T03:34:25;17.88;;;10.27;;
71148;SDS011;59072;42.144;25.200;2024-02-26T03:36:51;15.73;;;10.55;;
71148;SDS011;59072;42.144;25.200;2024-02-26T03:39:17;18.95;;;9.93;;
71148;SDS011;59072;42.144;25.200;2024-02-26T03:41:42;15.10;;;10.18;;
71148;SDS011;59072;42.144;25.200;2024-02-26T03:44:07;17.35;;;9.70;;
71148;SDS011;59072;42.144;25.200;2024-02-26T03:46:33;19.15;;;11.15;;
71148;SDS011;59072;42.144;25.200;2024-02-26T03:48:58;18.80;;;10.65;;
71148;SDS011;59072;42.144;25.200;2024-02-26T03:51:24;15.88;;;9.80;;
71148;SDS011;59072;42.144;25.200;2024-02-26T03:53:49;20.42;;;11.40;;
71148;SDS011;59072;42.144;25.200;2024-02-26T03:56:14;18.58;;;11.00;;
71148;SDS011;59072;42.144;25.200;2024-02-26T03:58:40;19.27;;;11.45;;
71148;SDS011;59072;42.144;25.200;2024-02-26T04:01:08;27.80;;;16.45;;
71148;SDS011;59072;42.144;25.200;2024-02-26T04:03:34;29.42;;;19.95;;
71148;SDS011;59072;42.144;25.200;2024-02-26T04:06:00;37.25;;;24.80;;
71148;SDS011;59072;42.144;25.200;2024-02-26T04:08:25;41.40;;;24.52;;
71148;SDS011;59072;42.144;25.200;2024-02-26T04:10:51;36.80;;;22.73;;
71148;SDS011;59072;42.144;25.200;2024-02-26T04:13:17;63.63;;;43.75;;
71148;SDS011;59072;42.144;25.200;2024-02-26T04:15:43;56.55;;;33.13;;
71148;SDS011;59072;42.144;25.200;2024-02-26T04:18:08;37.95;;;24.75;;
71148;SDS011;59072;42.144;25.200;2024-02-26T04:20:33;24.30;;;15.23;;
71148;SDS011;59072;42.144;25.200;2024-02-26T04:22:59;23.85;;;16.60;;
71148;SDS011;59072;42.144;25.200;2024-02-26T04:25:24;23.73;;;18.20;;
71148;SDS011;59072;42.144;25.200;2024-02-26T04:27:50;21.17;;;15.05;;
71148;SDS011;59072;42.144;25.200;2024-02-26T04:30:15;18.92;;;13.27;;
71148;SDS011;59072;42.144;25.200;2024-02-26T04:32:42;18.95;;;10.90;;
71148;SDS011;59072;42.144;25.200;2024-02-26T04:35:07;16.85;;;10.98;;
71148;SDS011;59072;42.144;25.200;2024-02-26T04:37:33;19.70;;;10.40;;
71148;SDS011;59072;42.144;25.200;2024-02-26T04:39:59;19.55;;;12.23;;
71148;SDS011;59072;42.144;25.200;2024-02-26T04:42:25;18.35;;;10.80;;
71148;SDS011;59072;42.144;25.200;2024-02-26T04:44:51;16.33;;;10.00;;
71148;SDS011;59072;42.144;25.200;2024-02-26T04:47:16;17.88;;;11.00;;
71148;SDS011;59072;42.144;25.200;2024-02-26T04:49:41;15.98;;;10.98;;
71148;SDS011;59072;42.144;25.200;2024-02-26T04:52:07;18.30;;;11.35;;
71148;SDS011;59072;42.144;25.200;2024-02-26T04:54:32;17.10;;;10.68;;
71148;SDS011;59072;42.144;25.200;2024-02-26T04:56:58;20.75;;;17.27;;
71148;SDS011;59072;42.144;25.200;2024-02-26T04:59:23;22.85;;;16.65;;
71148;SDS011;59072;42.144;25.200;2024-02-26T05:01:49;18.85;;;13.77;;
71148;SDS011;59072;42.144;25.200;2024-02-26T05:04:16;21.25;;;16.15;;
71148;SDS011;59072;42.144;25.200;2024-02-26T05:06:42;23.88;;;13.98;;
71148;SDS011;59072;42.144;25.200;2024-02-26T05:09:07;27.85;;;20.17;;
71148;SDS011;59072;42.144;25.200;2024-02-26T05:11:33;19.45;;;13.77;;
71148;SDS011;59072;42.144;25.200;2024-02-26T05:13:58;20.42;;;11.38;;
71148;SDS011;59072;42.144;25.200;2024-02-26T05:16:25;20.20;;;12.05;;
71148;SDS011;59072;42.144;25.200;2024-02-26T05:18:52;17.33;;;11.88;;
71148;SDS011;59072;42.144;25.200;2024-02-26T05:21:17;17.30;;;11.43;;
71148;SDS011;59072;42.144;25.200;2024-02-26T05:23:43;18.98;;;12.10;;
71148;SDS011;59072;42.144;25.200;2024-02-26T05:26:09;23.58;;;12.25;;
71148;SDS011;59072;42.144;25.200;2024-02-26T05:28:34;20.65;;;12.70;;
71148;SDS011;59072;42.144;25.200;2024-02-26T05:31:00;20.92;;;12.77;;
71148;SDS011;59072;42.144;25.200;2024-02-26T05:33:26;30.52;;;18.98;;
71148;SDS011;59072;42.144;25.200;2024-02-26T05:35:51;25.27;;;17.33;;
71148;SDS011;59072;42.144;25.200;2024-02-26T05:38:17;22.35;;;15.02;;
71148;SDS011;59072;42.144;25.200;2024-02-26T05:40:42;22.10;;;16.13;;
71148;SDS011;59072;42.144;25.200;2024-02-26T05:43:07;31.27;;;22.80;;
71148;SDS011;59072;42.144;25.200;2024-02-26T05:45:33;30.52;;;23.90;;
71148;SDS011;59072;42.144;25.200;2024-02-26T05:47:58;29.23;;;20.05;;
71148;SDS011;59072;42.144;25.200;2024-02-26T05:50:24;30.08;;;18.80;;
71148;SDS011;59072;42.144;25.200;2024-02-26T05:52:49;32.38;;;16.42;;
71148;SDS011;59072;42.144;25.200;2024-02-26T05:55:14;22.02;;;13.07;;
71148;SDS011;59072;42.144;25.200;2024-02-26T05:57:40;23.00;;;12.70;;
71148;SDS011;59072;42.144;25.200;2024-02-26T06:00:06;21.38;;;12.70;;
71148;SDS011;59072;42.144;25.200;2024-02-26T06:02:31;25.77;;;14.63;;
71148;SDS011;59072;42.144;25.200;2024-02-26T06:04:57;21.80;;;13.10;;
71148;SDS011;59072;42.144;25.200;2024-02-26T06:07:23;21.35;;;12.40;;
71148;SDS011;59072;42.144;25.200;2024-02-26T06:09:49;25.25;;;17.63;;
71148;SDS011;59072;42.144;25.200;2024-02-26T06:12:14;24.05;;;15.27;;
71148;SDS011;59072;42.144;25.200;2024-02-26T06:14:41;26.88;;;16.92;;
71148;SDS011;59072;42.144;25.200;2024-02-26T06:17:08;23.30;;;14.45;;
71148;SDS011;59072;42.144;25.200;2024-02-26T06:19:34;22.70;;;13.07;;
71148;SDS011;59072;42.144;25.200;2024-02-26T06:21:59;20.05;;;12.82;;
71148;SDS011;59072;42.144;25.200;2024-02-26T06:24:25;22.25;;;13.98;;
71148;SDS011;59072;42.144;25.200;2024-02-26T06:26:50;23.77;;;13.57;;
71148;SDS011;59072;42.144;25.200;2024-02-26T06:29:15;21.60;;;14.13;;
71148;SDS011;59072;42.144;25.200;2024-02-26T06:31:41;23.50;;;15.23;;
71148;SDS011;59072;42.144;25.200;2024-02-26T06:34:06;21.92;;;13.50;;
71148;SDS011;59072;42.144;25.200;2024-02-26T06:36:32;26.02;;;13.93;;
71148;SDS011;59072;42.144;25.200;2024-02-26T06:38:58;23.52;;;13.60;;
71148;SDS011;59072;42.144;25.200;2024-02-26T06:41:23;23.30;;;13.60;;
71148;SDS011;59072;42.144;25.200;2024-02-26T06:43:55;20.55;;;13.00;;
71148;SDS011;59072;42.144;25.200;2024-02-26T06:46:20;23.48;;;13.40;;
71148;SDS011;59072;42.144;25.200;2024-02-26T06:48:47;17.75;;;12.30;;
71148;SDS011;59072;42.144;25.200;2024-02-26T06:51:13;22.77;;;13.02;;
71148;SDS011;59072;42.144;25.200;2024-02-26T06:53:38;22.40;;;16.63;;
71148;SDS011;59072;42.144;25.200;2024-02-26T06:56:04;20.75;;;15.23;;
71148;SDS011;59072;42.144;25.200;2024-02-26T06:58:29;20.42;;;13.13;;
71148;SDS011;59072;42.144;25.200;2024-02-26T07:00:55;20.60;;;12.38;;
71148;SDS011;59072;42.144;25.200;2024-02-26T07:03:20;19.02;;;12.18;;
71148;SDS011;59072;42.144;25.200;2024-02-26T07:05:47;18.10;;;11.77;;
71148;SDS011;59072;42.144;25.200;2024-02-26T07:08:13;45.63;;;34.20;;
71148;SDS011;59072;42.144;25.200;2024-02-26T07:10:38;28.33;;;16.60;;
71148;SDS011;59072;42.144;25.200;2024-02-26T07:13:04;48.15;;;37.33;;
71148;SDS011;59072;42.144;25.200;2024-02-26T07:15:30;28.10;;;17.20;;
71148;SDS011;59072;42.144;25.200;2024-02-26T07:17:55;34.72;;;23.13;;
71148;SDS011;59072;42.144;25.200;2024-02-26T07:20:21;33.33;;;22.63;;
71148;SDS011;59072;42.144;25.200;2024-02-26T07:22:46;30.08;;;18.75;;
71148;SDS011;59072;42.144;25.200;2024-02-26T07:25:12;35.78;;;24.08;;
71148;SDS011;59072;42.144;25.200;2024-02-26T07:27:39;51.58;;;37.28;;
71148;SDS011;59072;42.144;25.200;2024-02-26T07:30:05;23.70;;;15.65;;
71148;SDS011;59072;42.144;25.200;2024-02-26T07:32:33;22.40;;;16.85;;
71148;SDS011;59072;42.144;25.200;2024-02-26T07:34:58;25.08;;;16.70;;
71148;SDS011;59072;42.144;25.200;2024-02-26T07:37:23;22.33;;;15.82;;
71148;SDS011;59072;42.144;25.200;2024-02-26T07:39:49;24.17;;;15.75;;
71148;SDS011;59072;42.144;25.200;2024-02-26T07:42:14;21.52;;;14.98;;
71148;SDS011;59072;42.144;25.200;2024-02-26T07:44:39;24.83;;;15.60;;
71148;SDS011;59072;42.144;25.200;2024-02-26T07:47:08;22.40;;;14.45;;
71148;SDS011;59072;42.144;25.200;2024-02-26T07:49:34;21.05;;;14.27;;
71148;SDS011;59072;42.144;25.200;2024-02-26T07:51:59;23.85;;;14.05;;
71148;SDS011;59072;42.144;25.200;2024-02-26T07:54:25;24.08;;;14.48;;
71148;SDS011;59072;42.144;25.200;2024-02-26T07:56:50;21.83;;;14.38;;
71148;SDS011;59072;42.144;25.200;2024-02-26T07:59:15;21.08;;;14.35;;
71148;SDS011;59072;42.144;25.200;2024-02-26T08:01:41;21.52;;;15.38;;
71148;SDS011;59072;42.144;25.200;2024-02-26T08:04:07;24.05;;;15.52;;
71148;SDS011;59072;42.144;25.200;2024-02-26T08:06:32;21.13;;;14.50;;
71148;SDS011;59072;42.144;25.200;2024-02-26T08:08:57;18.88;;;12.85;;
71148;SDS011;59072;42.144;25.200;2024-02-26T08:11:23;21.10;;;13.00;;
71148;SDS011;59072;42.144;25.200;2024-02-26T08:13:48;26.08;;;13.98;;
71148;SDS011;59072;42.144;25.200;2024-02-26T08:16:13;19.33;;;13.35;;
71148;SDS011;59072;42.144;25.200;2024-02-26T08:18:39;20.77;;;13.07;;
71148;SDS011;59072;42.144;25.200;2024-02-26T08:21:05;19.08;;;12.73;;
71148;SDS011;59072;42.144;25.200;2024-02-26T08:23:30;19.75;;;13.40;;
71148;SDS011;59072;42.144;25.200;2024-02-26T08:25:56;17.48;;;12.93;;
71148;SDS011;59072;42.144;25.200;2024-02-26T08:28:22;19.52;;;13.80;;
71148;SDS011;59072;42.144;25.200;2024-02-26T08:30:47;18.58;;;13.80;;
71148;SDS011;59072;42.144;25.200;2024-02-26T08:33:13;20.65;;;13.10;;
71148;SDS011;59072;42.144;25.200;2024-02-26T08:35:38;20.45;;;14.32;;
71148;SDS011;59072;42.144;25.200;2024-02-26T08:38:04;19.17;;;12.05;;
71148;SDS011;59072;42.144;25.200;2024-02-26T08:40:29;21.10;;;13.07;;
71148;SDS011;59072;42.144;25.200;2024-02-26T08:42:55;18.98;;;12.75;;
71148;SDS011;59072;42.144;25.200;2024-02-26T08:45:20;20.15;;;13.85;;
71148;SDS011;59072;42.144;25.200;2024-02-26T08:47:46;16.77;;;11.43;;
71148;SDS011;59072;42.144;25.200;2024-02-26T08:50:11;16.58;;;12.30;;
71148;SDS011;59072;42.144;25.200;2024-02-26T08:52:37;22.60;;;12.15;;
71148;SDS011;59072;42.144;25.200;2024-02-26T08:55:03;21.23;;;12.13;;
71148;SDS011;59072;42.144;25.200;2024-02-26T08:57:30;18.75;;;12.60;;
71148;SDS011;59072;42.144;25.200;2024-02-26T08:59:58;18.13;;;11.07;;
71148;SDS011;59072;42.144;25.200;2024-02-26T09:02:23;14.05;;;10.18;;
71148;SDS011;59072;42.144;25.200;2024-02-26T09:04:48;17.00;;;10.70;;
71148;SDS011;59072;42.144;25.200;2024-02-26T09:07:16;15.63;;;10.55;;
71148;SDS011;59072;42.144;25.200;2024-02-26T09:09:41;16.17;;;10.18;;
71148;SDS011;59072;42.144;25.200;2024-02-26T09:12:06;17.08;;;10.32;;
71148;SDS011;59072;42.144;25.200;2024-02-26T09:14:32;16.42;;;11.05;;
71148;SDS011;59072;42.144;25.200;2024-02-26T09:16:57;19.60;;;11.35;;
71148;SDS011;59072;42.144;25.200;2024-02-26T09:19:23;14.20;;;10.00;;
71148;SDS011;59072;42.144;25.200;2024-02-26T09:21:50;16.55;;;10.63;;
71148;SDS011;59072;42.144;25.200;2024-02-26T09:24:16;18.35;;;10.95;;
71148;SDS011;59072;42.144;25.200;2024-02-26T09:26:41;20.13;;;10.70;;
71148;SDS011;59072;42.144;25.200;2024-02-26T09:29:07;19.38;;;12.02;;
71148;SDS011;59072;42.144;25.200;2024-02-26T09:31:33;19.35;;;10.32;;
71148;SDS011;59072;42.144;25.200;2024-02-26T09:33:59;18.00;;;10.43;;
71148;SDS011;59072;42.144;25.200;2024-02-26T09:36:24;15.43;;;9.07;;
71148;SDS011;59072;42.144;25.200;2024-02-26T09:38:50;15.30;;;9.48;;
71148;SDS011;59072;42.144;25.200;2024-02-26T09:41:15;21.75;;;12.40;;
71148;SDS011;59072;42.144;25.200;2024-02-26T09:43:42;17.23;;;11.20;;
71148;SDS011;59072;42.144;25.200;2024-02-26T09:46:10;13.57;;;8.90;;
71148;SDS011;59072;42.144;25.200;2024-02-26T09:48:35;15.50;;;9.85;;
71148;SDS011;59072;42.144;25.200;2024-02-26T09:51:02;11.93;;;7.82;;
71148;SDS011;59072;42.144;25.200;2024-02-26T09:53:29;15.13;;;8.15;;
71148;SDS011;59072;42.144;25.200;2024-02-26T09:58:22;12.73;;;7.90;;
71148;SDS011;59072;42.144;25.200;2024-02-26T10:00:49;12.75;;;7.78;;
71148;SDS011;59072;42.144;25.200;2024-02-26T10:03:18;13.13;;;8.30;;
71148;SDS011;59072;42.144;25.200;2024-02-26T10:05:46;14.95;;;7.68;;
71148;SDS011;59072;42.144;25.200;2024-02-26T10:08:15;13.60;;;8.57;;
71148;SDS011;59072;42.144;25.200;2024-02-26T10:10:43;12.55;;;7.38;;
71148;SDS011;59072;42.144;25.200;2024-02-26T10:13:09;11.50;;;7.63;;
71148;SDS011;59072;42.144;25.200;2024-02-26T10:15:37;12.15;;;7.63;;
71148;SDS011;59072;42.144;25.200;2024-02-26T10:18:05;11.95;;;7.95;;
71148;SDS011;59072;42.144;25.200;2024-02-26T10:20:31;13.68;;;8.30;;
71148;SDS011;59072;42.144;25.200;2024-02-26T10:22:57;15.15;;;9.25;;
71148;SDS011;59072;42.144;25.200;2024-02-26T10:25:23;26.73;;;13.30;;
71148;SDS011;59072;42.144;25.200;2024-02-26T10:27:48;16.63;;;10.20;;
71148;SDS011;59072;42.144;25.200;2024-02-26T10:30:20;13.70;;;8.25;;
71148;SDS011;59072;42.144;25.200;2024-02-26T10:32:47;16.83;;;7.85;;
71148;SDS011;59072;42.144;25.200;2024-02-26T10:35:14;13.10;;;8.23;;
71148;SDS011;59072;42.144;25.200;2024-02-26T10:37:41;19.17;;;7.68;;
71148;SDS011;59072;42.144;25.200;2024-02-26T10:40:10;11.38;;;7.70;;
71148;SDS011;59072;42.144;25.200;2024-02-26T10:42:37;13.82;;;7.22;;
71148;SDS011;59072;42.144;25.200;2024-02-26T10:45:04;10.65;;;6.63;;
71148;SDS011;59072;42.144;25.200;2024-02-26T10:47:30;11.43;;;7.50;;
71148;SDS011;59072;42.144;25.200;2024-02-26T10:49:58;10.63;;;7.45;;
71148;SDS011;59072;42.144;25.200;2024-02-26T10:52:23;15.85;;;9.02;;
71148;SDS011;59072;42.144;25.200;2024-02-26T10:54:50;13.73;;;7.47;;
71148;SDS011;59072;42.144;25.200;2024-02-26T10:57:20;13.52;;;7.78;;
71148;SDS011;59072;42.144;25.200;2024-02-26T10:59:47;12.27;;;8.05;;
71148;SDS011;59072;42.144;25.200;2024-02-26T11:02:14;14.10;;;9.70;;
71148;SDS011;59072;42.144;25.200;2024-02-26T11:04:40;13.77;;;7.97;;
71148;SDS011;59072;42.144;25.200;2024-02-26T11:07:06;12.27;;;7.50;;
71148;SDS011;59072;42.144;25.200;2024-02-26T11:09:35;12.38;;;7.70;;
71148;SDS011;59072;42.144;25.200;2024-02-26T11:12:01;14.48;;;7.65;;
71148;SDS011;59072;42.144;25.200;2024-02-26T11:14:27;15.48;;;7.38;;
71148;SDS011;59072;42.144;25.200;2024-02-26T11:16:55;14.88;;;7.88;;
71148;SDS011;59072;42.144;25.200;2024-02-26T11:19:21;15.07;;;7.78;;
71148;SDS011;59072;42.144;25.200;2024-02-26T11:21:47;10.25;;;7.32;;
71148;SDS011;59072;42.144;25.200;2024-02-26T11:24:13;10.18;;;6.90;;
71148;SDS011;59072;42.144;25.200;2024-02-26T11:26:51;13.13;;;6.90;;
71148;SDS011;59072;42.144;25.200;2024-02-26T11:29:24;11.98;;;7.25;;
71148;SDS011;59072;42.144;25.200;2024-02-26T11:31:53;11.48;;;6.68;;
71148;SDS011;59072;42.144;25.200;2024-02-26T11:34:19;12.15;;;6.45;;
71148;SDS011;59072;42.144;25.200;2024-02-26T11:36:45;11.00;;;7.78;;
71148;SDS011;59072;42.144;25.200;2024-02-26T11:39:11;16.17;;;7.22;;
71148;SDS011;59072;42.144;25.200;2024-02-26T11:41:40;15.93;;;8.20;;
71148;SDS011;59072;42.144;25.200;2024-02-26T11:44:05;12.48;;;6.15;;
71148;SDS011;59072;42.144;25.200;2024-02-26T11:46:32;14.45;;;7.80;;
71148;SDS011;59072;42.144;25.200;2024-02-26T11:51:52;9.23;;;5.85;;
71148;SDS011;59072;42.144;25.200;2024-02-26T11:59:56;12.93;;;6.40;;
71148;SDS011;59072;42.144;25.200;2024-02-26T12:02:49;12.13;;;6.85;;
71148;SDS011;59072;42.144;25.200;2024-02-26T12:05:30;13.38;;;6.78;;
71148;SDS011;59072;42.144;25.200;2024-02-26T12:08:04;12.35;;;6.57;;
71148;SDS011;59072;42.144;25.200;2024-02-26T12:13:05;12.57;;;6.47;;
71148;SDS011;59072;42.144;25.200;2024-02-26T12:15:33;12.77;;;6.70;;
71148;SDS011;59072;42.144;25.200;2024-02-26T12:18:03;10.57;;;6.47;;
71148;SDS011;59072;42.144;25.200;2024-02-26T12:20:30;10.18;;;5.90;;
71148;SDS011;59072;42.144;25.200;2024-02-26T12:22:56;11.90;;;6.10;;
71148;SDS011;59072;42.144;25.200;2024-02-26T12:25:25;10.45;;;5.97;;
71148;SDS011;59072;42.144;25.200;2024-02-26T12:27:53;11.13;;;6.07;;
71148;SDS011;59072;42.144;25.200;2024-02-26T12:30:20;10.13;;;6.50;;
71148;SDS011;59072;42.144;25.200;2024-02-26T12:32:46;8.88;;;5.40;;
71148;SDS011;59072;42.144;25.200;2024-02-26T12:35:13;10.77;;;5.78;;
71148;SDS011;59072;42.144;25.200;2024-02-26T12:37:40;9.35;;;6.28;;
71148;SDS011;59072;42.144;25.200;2024-02-26T12:40:06;11.98;;;5.60;;
71148;SDS011;59072;42.144;25.200;2024-02-26T12:42:34;12.90;;;5.75;;
71148;SDS011;59072;42.144;25.200;2024-02-26T12:45:04;9.10;;;5.80;;
71148;SDS011;59072;42.144;25.200;2024-02-26T12:47:37;9.85;;;5.50;;
71148;SDS011;59072;42.144;25.200;2024-02-26T12:50:07;9.70;;;5.80;;
71148;SDS011;59072;42.144;25.200;2024-02-26T12:52:34;11.57;;;5.35;;
71148;SDS011;59072;42.144;25.200;2024-02-26T12:55:03;9.47;;;4.50;;
71148;SDS011;59072;42.144;25.200;2024-02-26T12:57:31;8.70;;;4.55;;
71148;SDS011;59072;42.144;25.200;2024-02-26T12:59:58;11.13;;;4.80;;
71148;SDS011;59072;42.144;25.200;2024-02-26T13:02:25;11.70;;;4.93;;
71148;SDS011;59072;42.144;25.200;2024-02-26T13:04:51;9.57;;;6.18;;
71148;SDS011;59072;42.144;25.200;2024-02-26T13:07:17;10.70;;;5.32;;
71148;SDS011;59072;42.144;25.200;2024-02-26T13:09:42;11.15;;;5.25;;
71148;SDS011;59072;42.144;25.200;2024-02-26T13:12:08;11.63;;;7.40;;
71148;SDS011;59072;42.144;25.200;2024-02-26T13:14:34;13.00;;;6.05;;
71148;SDS011;59072;42.144;25.200;2024-02-26T13:17:00;11.57;;;5.45;;
71148;SDS011;59072;42.144;25.200;2024-02-26T13:19:26;13.18;;;5.22;;
71148;SDS011;59072;42.144;25.200;2024-02-26T13:21:55;28.30;;;6.03;;
71148;SDS011;59072;42.144;25.200;2024-02-26T13:24:21;9.63;;;5.20;;
71148;SDS011;59072;42.144;25.200;2024-02-26T13:26:53;8.50;;;3.72;;
71148;SDS011;59072;42.144;25.200;2024-02-26T13:29:19;7.15;;;4.53;;
71148;SDS011;59072;42.144;25.200;2024-02-26T13:31:45;9.48;;;4.22;;
71148;SDS011;59072;42.144;25.200;2024-02-26T13:34:11;7.93;;;4.00;;
71148;SDS011;59072;42.144;25.200;2024-02-26T13:36:48;11.23;;;4.22;;
71148;SDS011;59072;42.144;25.200;2024-02-26T13:39:20;7.80;;;4.03;;
71148;SDS011;59072;42.144;25.200;2024-02-26T13:41:50;9.98;;;4.38;;
71148;SDS011;59072;42.144;25.200;2024-02-26T13:44:17;6.88;;;3.92;;
71148;SDS011;59072;42.144;25.200;2024-02-26T13:46:42;7.82;;;3.80;;
71148;SDS011;59072;42.144;25.200;2024-02-26T13:49:08;8.93;;;4.18;;
71148;SDS011;59072;42.144;25.200;2024-02-26T13:51:34;10.88;;;5.07;;
71148;SDS011;59072;42.144;25.200;2024-02-26T13:54:00;9.05;;;4.72;;
71148;SDS011;59072;42.144;25.200;2024-02-26T13:56:26;10.18;;;5.22;;
71148;SDS011;59072;42.144;25.200;2024-02-26T13:58:52;7.97;;;5.40;;
71148;SDS011;59072;42.144;25.200;2024-02-26T14:01:17;7.70;;;4.45;;
71148;SDS011;59072;42.144;25.200;2024-02-26T14:03:43;10.48;;;5.68;;
71148;SDS011;59072;42.144;25.200;2024-02-26T14:06:08;9.05;;;4.80;;
71148;SDS011;59072;42.144;25.200;2024-02-26T14:08:34;11.90;;;6.35;;
71148;SDS011;59072;42.144;25.200;2024-02-26T14:10:59;11.38;;;6.45;;
71148;SDS011;59072;42.144;25.200;2024-02-26T14:13:25;12.05;;;6.38;;
71148;SDS011;59072;42.144;25.200;2024-02-26T14:15:50;13.57;;;7.15;;
71148;SDS011;59072;42.144;25.200;2024-02-26T14:18:16;13.63;;;9.32;;
71148;SDS011;59072;42.144;25.200;2024-02-26T14:20:41;11.60;;;8.10;;
71148;SDS011;59072;42.144;25.200;2024-02-26T14:23:07;11.43;;;7.57;;